Humidity-temperature Sensor

Selected Measurement Type: Air Temperature

 
Air Temperature [°C]     6 entries per hour
Showing data from 5/6/2015 (00:00:00 Z) to 4/29/2015 (00:01:00 Z)
Previous Next [ Day | 3-Days | 7-Days ]
First Last
Prev [ Day | 3-Days | 7-Days ] Next
First Last

Start Time:     :
End Time:     :     
Time (in GMT) :00 :50 :40 :30 :20 :10
Previous Next [ Day | 3-Days | 7-Days ]
First Last
Prev [ Day | 3-Days | 7-Days ] Next
First Last


123 => good data
MM => data is determined as missing
-- => data not received/configured
Back to Top Back to Top
5/6/2015 00:00 to 23:10 26.94 26.73 26.25 25.96 25.45 25.54
5/5/2015 23:00 to 22:10 25.60 25.60 26.07 26.27 26.51 26.75
5/5/2015 22:00 to 21:10 27.06 27.59 27.64 27.62 27.62 27.57
5/5/2015 21:00 to 20:10 27.59 27.65 27.85 27.77 27.70 27.83
5/5/2015 20:00 to 19:10 27.83 27.77 27.78 27.79 27.62 27.67
5/5/2015 19:00 to 18:10 27.65 27.65 27.65 27.53 27.42 27.46
5/5/2015 18:00 to 17:10 27.46 27.44 27.30 27.44 27.39 27.50
5/5/2015 17:00 to 16:10 27.51 27.52 27.58 27.57 27.63 27.63
5/5/2015 16:00 to 15:10 27.52 27.50 27.59 27.51 27.54 27.47
5/5/2015 15:00 to 14:10 27.55 27.44 27.41 27.35 27.37 27.28
5/5/2015 14:00 to 13:10 27.37 26.91 27.13 27.10 26.83 26.90
5/5/2015 13:00 to 12:10 26.85 26.89 27.03 27.20 26.99 26.92
5/5/2015 12:00 to 11:10 26.65 26.72 26.54 26.47 27.02 26.98
5/5/2015 11:00 to 10:10 26.83 26.97 27.09 27.01 26.73 26.54
5/5/2015 10:00 to 9:10 26.76 27.04 27.30 27.25 27.27 27.27
5/5/2015 09:00 to 8:10 27.24 27.28 27.27 27.27 27.26 27.37
5/5/2015 08:00 to 7:10 27.31 27.25 27.26 27.21 27.07 26.92
5/5/2015 07:00 to 6:10 27.30 27.41 27.39 27.42 27.36 27.28
5/5/2015 06:00 to 5:10 27.18 27.45 27.39 27.33 27.38 27.39
5/5/2015 05:00 to 4:10 27.36 27.35 27.32 27.37 27.27 27.25
5/5/2015 04:00 to 3:10 27.26 27.24 27.18 27.25 27.19 27.28
5/5/2015 03:00 to 2:10 27.28 27.27 27.31 27.38 27.28 27.38
5/5/2015 02:00 to 1:10 27.34 27.27 27.30 27.07 27.05 27.01
5/5/2015 01:00 to 0:10 26.71 26.96 26.98 26.74 27.08 27.49
5/5/2015 00:00 to 23:10 27.48 27.44 27.41 27.34 27.38 27.44
5/4/2015 23:00 to 22:10 27.22 27.29 26.90 27.35 26.93 26.35
5/4/2015 22:00 to 21:10 26.22 26.57 27.45 27.48 27.65 27.54
5/4/2015 21:00 to 20:10 27.48 27.46 27.43 26.89 26.36 26.08
5/4/2015 20:00 to 19:10 26.05 26.03 26.14 26.49 26.46 26.64
5/4/2015 19:00 to 18:10 26.95 26.24 26.80 26.14 25.77 25.51
5/4/2015 18:00 to 17:10 25.63 25.80 25.77 25.93 26.16 26.81
5/4/2015 17:00 to 16:10 26.90 27.03 26.96 26.91 26.56 26.10
5/4/2015 16:00 to 15:10 25.85 25.63 25.48 25.49 25.99 26.14
5/4/2015 15:00 to 14:10 26.22 26.27 26.05 26.02 25.68 25.67
5/4/2015 14:00 to 13:10 25.53 26.07 26.34 26.58 26.63 26.66
5/4/2015 13:00 to 12:10 26.79 26.60 26.61 26.63 26.47 26.35
5/4/2015 12:00 to 11:10 26.20 26.09 25.99 26.02 25.97 25.88
5/4/2015 11:00 to 10:10 26.06 25.83 25.96 25.81 26.01 25.98
5/4/2015 10:00 to 9:10 26.17 26.24 26.20 26.16 26.07 26.09
5/4/2015 09:00 to 8:10 26.17 26.10 26.10 25.95 25.87 25.90
5/4/2015 08:00 to 7:10 26.14 26.33 26.12 26.10 26.17 26.07
5/4/2015 07:00 to 6:10 26.08 25.92 25.93 25.89 25.87 25.78
5/4/2015 06:00 to 5:10 25.73 25.99 26.11 26.13 26.29 26.52
5/4/2015 05:00 to 4:10 26.43 26.56 26.72 26.57 26.67 26.89
5/4/2015 04:00 to 3:10 27.00 26.94 27.05 26.96 26.90 26.82
5/4/2015 03:00 to 2:10 26.69 26.59 26.70 26.70 26.55 26.35
5/4/2015 02:00 to 1:10 26.50 26.33 26.47 26.31 26.60 26.48
5/4/2015 01:00 to 0:10 26.33 26.31 26.24 26.14 26.10 25.97
5/4/2015 00:00 to 23:10 25.97 25.60 25.83 25.76 26.44 27.79
5/3/2015 23:00 to 22:10 27.67 27.69 27.70 27.66 27.65 27.64
5/3/2015 22:00 to 21:10 27.63 27.67 27.48 27.41 27.26 27.34
5/3/2015 21:00 to 20:10 27.28 27.39 26.99 26.56 26.32 27.12
5/3/2015 20:00 to 19:10 27.15 27.03 26.71 26.88 26.81 26.94
5/3/2015 19:00 to 18:10 26.84 26.90 27.18 26.76 27.06 27.58
5/3/2015 18:00 to 17:10 27.70 27.75 27.70 27.48 27.51 27.69
5/3/2015 17:00 to 16:10 27.76 27.71 27.73 27.74 27.67 27.57
5/3/2015 16:00 to 15:10 27.50 27.44 27.38 27.40 27.39 27.34
5/3/2015 15:00 to 14:10 27.43 27.35 27.35 27.29 27.34 27.23
5/3/2015 14:00 to 13:10 27.18 27.19 27.10 27.12 27.29 27.32
5/3/2015 13:00 to 12:10 27.44 27.34 27.33 27.24 27.29 27.34
5/3/2015 12:00 to 11:10 27.30 27.38 27.35 27.33 27.31 27.31
5/3/2015 11:00 to 10:10 27.30 27.34 27.30 27.28 27.33 27.29
5/3/2015 10:00 to 9:10 27.31 27.28 27.28 27.34 27.27 27.32
5/3/2015 09:00 to 8:10 27.32 27.41 27.31 27.37 27.39 27.40
5/3/2015 08:00 to 7:10 27.44 27.46 27.46 27.57 27.53 27.40
5/3/2015 07:00 to 6:10 27.43 27.49 27.47 27.48 27.49 27.57
5/3/2015 06:00 to 5:10 27.50 27.45 27.16 26.97 26.91 26.68
5/3/2015 05:00 to 4:10 27.09 27.18 27.17 27.51 27.52 27.57
5/3/2015 04:00 to 3:10 27.61 27.69 27.52 27.56 27.59 27.54
5/3/2015 03:00 to 2:10 27.61 27.54 27.54 27.46 27.44 27.52
5/3/2015 02:00 to 1:10 27.34 27.15 27.42 27.02 26.90 26.93
5/3/2015 01:00 to 0:10 27.38 27.07 26.88 26.92 27.36 27.70
5/3/2015 00:00 to 23:10 27.49 27.49 27.50 27.47 27.48 27.39
5/2/2015 23:00 to 22:10 27.44 27.32 27.41 27.32 27.12 27.07
5/2/2015 22:00 to 21:10 27.18 26.87 27.04 27.19 26.79 26.82
5/2/2015 21:00 to 20:10 27.32 27.13 27.44 27.33 27.30 27.34
5/2/2015 20:00 to 19:10 27.26 27.37 27.18 27.22 27.41 27.23
5/2/2015 19:00 to 18:10 26.95 27.14 27.26 27.41 27.33 27.35
5/2/2015 18:00 to 17:10 27.28 27.18 27.13 27.16 27.16 27.04
5/2/2015 17:00 to 16:10 27.10 26.89 27.05 27.11 27.16 27.17
5/2/2015 16:00 to 15:10 27.19 27.19 27.19 27.17 27.22 27.09
5/2/2015 15:00 to 14:10 27.13 27.22 27.21 27.38 27.31 27.27
5/2/2015 14:00 to 13:10 27.17 27.26 27.21 27.15 27.03 27.20
5/2/2015 13:00 to 12:10 27.20 27.09 27.11 27.05 27.03 26.99
5/2/2015 12:00 to 11:10 27.00 27.05 27.10 27.13 26.96 27.09
5/2/2015 11:00 to 10:10 27.06 27.07 27.08 27.06 27.01 27.07
5/2/2015 10:00 to 9:10 27.12 27.00 27.02 27.14 27.13 27.11
5/2/2015 09:00 to 8:10 27.19 27.22 27.17 27.21 27.18 27.18
5/2/2015 08:00 to 7:10 27.24 27.34 27.23 27.20 27.31 27.36
5/2/2015 07:00 to 6:10 27.38 27.35 27.41 27.40 27.43 27.44
5/2/2015 06:00 to 5:10 27.49 27.54 27.45 27.45 27.40 27.41
5/2/2015 05:00 to 4:10 27.45 27.46 27.51 27.50 27.49 27.45
5/2/2015 04:00 to 3:10 27.42 27.53 27.44 27.39 27.49 27.53
5/2/2015 03:00 to 2:10 27.43 27.47 27.46 27.44 27.40 27.46
5/2/2015 02:00 to 1:10 27.44 27.49 27.47 27.47 27.40 27.47
5/2/2015 01:00 to 0:10 27.18 27.16 27.47 27.42 27.41 27.41
5/2/2015 00:00 to 23:10 27.46 27.52 27.59 27.71 27.66 27.56
5/1/2015 23:00 to 22:10 27.66 27.85 27.70 27.66 27.73 27.64
5/1/2015 22:00 to 21:10 27.74 27.74 27.78 27.65 27.73 27.62
5/1/2015 21:00 to 20:10 27.62 27.70 27.80 27.71 27.55 27.62
5/1/2015 20:00 to 19:10 27.59 27.55 27.62 27.53 27.62 27.60
5/1/2015 19:00 to 18:10 27.61 27.46 27.56 27.64 27.70 27.55
5/1/2015 18:00 to 17:10 27.59 27.54 27.59 27.62 27.65 27.61
5/1/2015 17:00 to 16:10 27.55 27.53 27.45 27.47 27.64 27.56
5/1/2015 16:00 to 15:10 27.55 27.59 27.50 27.51 27.40 27.41
5/1/2015 15:00 to 14:10 27.34 27.50 27.44 27.40 27.29 27.27
5/1/2015 14:00 to 13:10 27.22 27.19 27.14 27.24 27.15 27.18
5/1/2015 13:00 to 12:10 27.26 27.15 27.15 27.11 27.12 27.24
5/1/2015 12:00 to 11:10 27.11 27.11 27.07 27.17 27.07 27.04
5/1/2015 11:00 to 10:10 27.05 27.11 27.08 27.05 27.12 27.18
5/1/2015 10:00 to 9:10 27.14 27.20 27.20 27.14 27.23 27.22
5/1/2015 09:00 to 8:10 27.14 27.14 27.23 27.17 27.16 27.25
5/1/2015 08:00 to 7:10 27.22 27.17 27.28 27.34 27.39 27.38
5/1/2015 07:00 to 6:10 27.41 27.35 27.43 27.34 27.41 27.39
5/1/2015 06:00 to 5:10 27.42 27.36 27.38 27.33 27.42 27.45
5/1/2015 05:00 to 4:10 27.43 27.43 27.47 27.43 27.44 27.44
5/1/2015 04:00 to 3:10 27.43 27.49 27.47 27.46 27.49 27.39
5/1/2015 03:00 to 2:10 27.41 27.34 27.42 27.44 27.39 27.34
5/1/2015 02:00 to 1:10 27.39 27.40 27.33 27.34 27.44 27.43
5/1/2015 01:00 to 0:10 27.29 27.45 27.49 27.67 27.78 27.74
5/1/2015 00:00 to 23:10 27.75 27.81 27.74 27.76 27.82 27.83
4/30/2015 23:00 to 22:10 27.72 27.71 27.65 27.77 27.70 27.66
4/30/2015 22:00 to 21:10 27.67 27.77 27.57 27.80 27.61 27.50
4/30/2015 21:00 to 20:10 27.61 27.61 27.58 27.55 27.54 27.52
4/30/2015 20:00 to 19:10 27.52 27.59 27.66 27.62 27.50 27.51
4/30/2015 19:00 to 18:10 27.57 27.59 27.57 27.62 27.61 27.65
4/30/2015 18:00 to 17:10 27.60 27.55 27.60 27.55 27.53 27.55
4/30/2015 17:00 to 16:10 27.52 27.56 27.59 27.50 27.54 27.55
4/30/2015 16:00 to 15:10 27.37 27.56 27.50 27.42 27.41 27.40
4/30/2015 15:00 to 14:10 27.39 27.55 27.45 27.43 27.19 27.08
4/30/2015 14:00 to 13:10 27.21 27.10 27.15 27.21 27.10 27.19
4/30/2015 13:00 to 12:10 27.24 27.07 27.12 27.05 27.13 27.10
4/30/2015 12:00 to 11:10 27.07 27.13 27.03 27.05 27.08 27.02
4/30/2015 11:00 to 10:10 27.09 27.13 27.19 27.02 27.07 27.02
4/30/2015 10:00 to 9:10 27.03 27.14 27.10 27.03 27.07 27.10
4/30/2015 09:00 to 8:10 27.05 27.12 27.19 27.14 27.23 27.16
4/30/2015 08:00 to 7:10 27.18 27.19 27.17 27.24 27.26 27.28
4/30/2015 07:00 to 6:10 27.26 27.30 27.30 27.30 27.40 27.39
4/30/2015 06:00 to 5:10 27.45 27.41 27.46 27.52 27.49 27.47
4/30/2015 05:00 to 4:10 27.49 27.54 27.55 27.50 27.44 27.49
4/30/2015 04:00 to 3:10 27.45 27.49 27.52 27.50 27.50 27.50
4/30/2015 03:00 to 2:10 27.49 27.59 27.58 27.59 27.53 27.60
4/30/2015 02:00 to 1:10 27.59 27.55 27.64 27.62 27.58 27.70
4/30/2015 01:00 to 0:10 27.65 27.74 27.88 28.01 28.03 28.08
4/30/2015 00:00 to 23:10 28.07 28.19 28.24 28.17 28.21 28.23
4/29/2015 23:00 to 22:10 27.98 27.79 27.80 27.97 27.98 27.92
4/29/2015 22:00 to 21:10 27.90 27.91 27.96 27.75 27.73 27.75
4/29/2015 21:00 to 20:10 27.66 27.66 27.73 27.86 27.77 27.77
4/29/2015 20:00 to 19:10 27.77 27.74 27.74 27.80 27.70 27.65
4/29/2015 19:00 to 18:10 27.70 27.72 27.73 27.73 27.67 27.70
4/29/2015 18:00 to 17:10 27.75 27.65 27.63 27.73 27.61 27.63
4/29/2015 17:00 to 16:10 27.62 27.69 27.57 27.65 27.61 27.60
4/29/2015 16:00 to 15:10 27.70 27.72 27.67 27.57 27.55 27.61
4/29/2015 15:00 to 14:10 27.59 27.56 27.51 27.37 27.35 27.33
4/29/2015 14:00 to 13:10 27.41 27.45 27.36 27.15 27.35 27.24
4/29/2015 13:00 to 12:10 27.18 27.15 27.18 26.93 27.20 27.28
4/29/2015 12:00 to 11:10 27.25 27.25 27.24 27.26 27.18 26.77
4/29/2015 11:00 to 10:10 26.88 26.92 26.99 27.01 27.50 27.38
4/29/2015 10:00 to 9:10 27.03 27.11 26.95 26.53 26.89 26.48
4/29/2015 09:00 to 8:10 26.21 26.13 26.27 26.30 26.21 25.98
4/29/2015 08:00 to 7:10 26.22 26.62 26.66 26.28 26.17 26.18
4/29/2015 07:00 to 6:10 26.12 26.12 26.97 26.91 27.12 26.80
4/29/2015 06:00 to 5:10 26.96 27.13 27.21 27.39 27.17 27.13
4/29/2015 05:00 to 4:10 27.23 27.33 27.25 27.49 27.56 27.62
4/29/2015 04:00 to 3:10 27.48 27.39 27.37 27.48 27.45 27.63
4/29/2015 03:00 to 2:10 27.30 27.18 27.10 27.09 27.06 26.92
4/29/2015 02:00 to 1:10 26.84 26.77 26.69 27.09 26.96 26.85
4/29/2015 01:00 to 0:10 27.07 27.20 27.29 27.61 27.24 27.03